CheckWX is a tool to help pilots better visualize weather data.  It is not intended as a substitute for an official pre-flight weather briefing.

07:43:18 UTC

KFAT METAR
Fresno Yosemite International Airport
Fresno, California, USA
Current

50 mins ago

KFAT 240653Z 30005KT 10SM FEW200 11/06 A3034 RMK AO2 SLP273 T01110061
Observed
Feb-24 @ 06:53 UTC
Wind
  • 300° at 5 KTS
Visibility
10 SM
Flight Rules
VFR
Cloud Levels
  • Few at 20,000' AGL
Temperature
11°C / 52°F
Dewpoint
C / 43°F
Humidity
72%
Altimeter
30.34" Hg
Pressure
1027.42 hPa
Previous

2 hours ago

KFAT 240553Z 31003KT 10SM CLR 12/07 A3034 RMK AO2 SLP272 T01220067 10194 20122 53007
Observed
Feb-24 @ 05:53 UTC
Wind
  • 310° at 3 KTS
Visibility
10 SM
Flight Rules
VFR
Cloud Levels
  • Clear skies
Temperature
12°C / 54°F
Dewpoint
C / 45°F
Humidity
72%
Altimeter
30.34" Hg
Pressure
1027.42 hPa
Previous

3 hours ago

KFAT 240453Z 30004KT 10SM FEW150 14/07 A3032 RMK AO2 SLP266 T01390067
Observed
Feb-24 @ 04:53 UTC
Wind
  • 300° at 4 KTS
Visibility
10 SM
Flight Rules
VFR
Cloud Levels
  • Few at 15,000' AGL
Temperature
14°C / 57°F
Dewpoint
C / 45°F
Humidity
63%
Altimeter
30.32" Hg
Pressure
1026.72 hPa